createdAt,value
2017-11-15T00:02:17.525Z,3.80
2017-11-15T00:04:45.001Z,4.67
2017-11-15T00:07:12.438Z,3.50
2017-11-15T00:09:39.889Z,4.80
2017-11-15T00:12:07.325Z,4.43
2017-11-15T00:14:35.537Z,3.07
2017-11-15T00:17:02.974Z,3.30
2017-11-15T00:19:30.473Z,3.90
2017-11-15T00:21:58.023Z,3.73
2017-11-15T00:24:25.446Z,3.87
2017-11-15T00:26:52.894Z,3.37
2017-11-15T00:29:21.109Z,3.47
2017-11-15T00:31:48.571Z,4.03
2017-11-15T00:34:16.049Z,5.30
2017-11-15T00:36:43.588Z,4.30
2017-11-15T00:39:11.149Z,5.10
2017-11-15T00:41:38.782Z,4.10
2017-11-15T00:44:06.216Z,3.23
2017-11-15T00:46:34.426Z,2.43
2017-11-15T00:49:01.871Z,3.83
2017-11-15T00:51:29.373Z,4.00
2017-11-15T00:53:58.335Z,4.00
2017-11-15T00:56:25.750Z,5.43
2017-11-15T00:58:54.090Z,5.30
2017-11-15T01:01:21.550Z,5.97
2017-11-15T01:03:48.994Z,6.90
2017-11-15T01:06:16.439Z,4.57
2017-11-15T01:08:43.862Z,4.00
2017-11-15T01:11:12.082Z,5.87
2017-11-15T01:13:39.545Z,4.50
2017-11-15T01:16:07.001Z,4.47
2017-11-15T01:18:34.430Z,3.50
2017-11-15T01:21:01.887Z,3.70
2017-11-15T01:23:29.381Z,4.30
2017-11-15T01:25:56.818Z,6.20
2017-11-15T01:28:24.257Z,4.90
2017-11-15T01:30:51.691Z,4.60
2017-11-15T01:33:19.889Z,5.37
2017-11-15T01:35:47.357Z,6.33
2017-11-15T01:38:14.803Z,4.70
2017-11-15T01:40:43.017Z,5.33
2017-11-15T01:43:10.448Z,3.93
2017-11-15T01:45:37.932Z,2.90
2017-11-15T01:48:05.373Z,3.00
2017-11-15T01:50:32.849Z,3.80
2017-11-15T01:53:00.405Z,4.10
2017-11-15T01:55:27.829Z,4.13
2017-11-15T01:57:55.259Z,6.90
2017-11-15T02:00:35.275Z,3.83
2017-11-15T02:03:02.702Z,3.30
2017-11-15T02:05:30.193Z,4.77
2017-11-15T02:07:57.617Z,3.37
2017-11-15T02:10:25.058Z,3.67
2017-11-15T02:12:52.562Z,3.80
2017-11-15T02:15:20.018Z,5.97
2017-11-15T02:17:47.470Z,5.90
2017-11-15T02:20:14.893Z,3.13
2017-11-15T02:22:42.389Z,3.73
2017-11-15T02:25:09.824Z,3.27
2017-11-15T02:27:37.250Z,6.20
2017-11-15T02:30:05.460Z,3.60
2017-11-15T02:32:32.920Z,4.80
2017-11-15T02:35:00.363Z,4.90
2017-11-15T02:37:27.787Z,3.90
2017-11-15T02:39:56.743Z,3.67
2017-11-15T02:42:24.185Z,3.50
2017-11-15T02:44:51.660Z,3.70
2017-11-15T02:47:19.107Z,5.57
2017-11-15T02:49:46.543Z,4.47
2017-11-15T02:52:13.974Z,4.47
2017-11-15T02:54:42.183Z,5.30
2017-11-15T02:57:09.662Z,2.77
2017-11-15T02:59:37.115Z,5.30
2017-11-15T03:02:04.538Z,3.60
2017-11-15T03:04:32.042Z,3.57
2017-11-15T03:06:59.490Z,4.17
2017-11-15T03:09:26.918Z,3.20
2017-11-15T03:11:54.369Z,4.37
2017-11-15T03:14:21.801Z,4.53
2017-11-15T03:16:49.999Z,3.77
2017-11-15T03:19:17.438Z,4.90
2017-11-15T03:21:45.634Z,3.23
2017-11-15T03:24:13.123Z,4.67
2017-11-15T03:26:40.591Z,3.70
2017-11-15T03:29:08.043Z,3.83
2017-11-15T03:31:35.499Z,3.90
2017-11-15T03:34:02.943Z,3.87
2017-11-15T03:36:30.409Z,4.57
2017-11-15T03:38:57.837Z,5.67
2017-11-15T03:41:25.525Z,4.50
2017-11-15T03:43:52.974Z,5.17
2017-11-15T03:46:20.449Z,5.40
2017-11-15T03:48:48.010Z,3.70
2017-11-15T03:51:15.470Z,2.97
2017-11-15T03:53:42.905Z,3.47
2017-11-15T03:56:10.381Z,3.67
2017-11-15T03:58:37.918Z,3.50
2017-11-15T04:01:05.366Z,2.60
2017-11-15T04:03:32.849Z,3.80
2017-11-15T04:06:00.282Z,5.73
2017-11-15T04:08:27.782Z,3.93
2017-11-15T04:10:55.222Z,5.20
2017-11-15T04:13:22.650Z,2.93
2017-11-15T04:15:50.073Z,4.70
2017-11-15T04:18:18.270Z,4.20
2017-11-15T04:20:46.479Z,5.57
2017-11-15T04:23:14.030Z,5.20
2017-11-15T04:25:41.501Z,5.03
2017-11-15T04:28:08.965Z,3.40
2017-11-15T04:30:36.392Z,4.13
2017-11-15T04:33:03.826Z,6.90
2017-11-15T04:35:31.259Z,5.17
2017-11-15T04:37:58.703Z,4.67
2017-11-15T04:40:26.138Z,4.50
2017-11-15T04:42:53.606Z,5.87
2017-11-15T04:45:21.055Z,4.00
2017-11-15T04:47:48.492Z,4.50
2017-11-15T04:50:15.933Z,4.53
2017-11-15T04:52:43.446Z,6.40
2017-11-15T04:55:10.865Z,4.53
2017-11-15T04:57:38.305Z,6.10
2017-11-15T05:00:05.818Z,5.07
2017-11-15T05:02:33.367Z,3.53
2017-11-15T05:05:00.800Z,4.57
2017-11-15T05:07:28.221Z,5.83
2017-11-15T05:09:56.446Z,6.80
2017-11-15T05:12:23.875Z,3.80
2017-11-15T05:14:51.317Z,5.50
2017-11-15T05:17:19.550Z,6.10
2017-11-15T05:19:47.746Z,4.20
2017-11-15T05:22:15.186Z,5.33
2017-11-15T05:24:43.455Z,4.93
2017-11-15T05:27:10.917Z,5.83
2017-11-15T05:29:38.339Z,3.13
2017-11-15T05:32:05.765Z,3.30
2017-11-15T05:34:33.970Z,3.63
2017-11-15T05:37:01.402Z,3.17
2017-11-15T05:39:29.609Z,3.73
2017-11-15T05:41:57.046Z,3.70
2017-11-15T05:44:25.235Z,2.17
2017-11-15T05:46:52.719Z,3.83
2017-11-15T05:49:20.150Z,2.33
2017-11-15T05:51:47.591Z,4.33
2017-11-15T05:54:15.029Z,2.30
2017-11-15T05:56:43.224Z,2.90
2017-11-15T05:59:10.661Z,2.67
2017-11-15T06:01:38.885Z,2.73
2017-11-15T06:04:06.321Z,3.80
2017-11-15T06:06:33.757Z,2.40
2017-11-15T06:09:01.978Z,3.27
2017-11-15T06:11:29.428Z,2.97
2017-11-15T06:13:56.961Z,6.13
2017-11-15T06:16:25.144Z,3.00
2017-11-15T06:18:52.516Z,3.37
2017-11-15T06:21:19.970Z,2.27
2017-11-15T06:23:47.452Z,4.17
2017-11-15T06:26:14.917Z,2.90
2017-11-15T06:28:42.455Z,3.30
2017-11-15T06:31:09.790Z,3.57
2017-11-15T06:33:37.403Z,4.77
2017-11-15T06:36:04.729Z,3.60
2017-11-15T06:38:32.271Z,3.60
2017-11-15T06:40:59.646Z,2.60
2017-11-15T06:43:27.506Z,3.47
2017-11-15T06:45:54.942Z,4.87
2017-11-15T06:48:22.374Z,2.73
2017-11-15T06:50:49.882Z,4.00
2017-11-15T06:53:17.314Z,5.80
2017-11-15T06:55:44.736Z,2.60
2017-11-15T06:58:12.225Z,2.77
2017-11-15T07:00:39.666Z,1.80
2017-11-15T07:03:07.120Z,2.77
2017-11-15T07:05:34.541Z,2.80
2017-11-15T07:08:01.966Z,3.10
2017-11-15T07:10:29.409Z,3.90
2017-11-15T07:12:57.612Z,3.10
2017-11-15T07:15:25.130Z,2.80
2017-11-15T07:17:52.578Z,2.37
2017-11-15T07:20:20.034Z,2.07
2017-11-15T07:22:47.470Z,1.77
2017-11-15T07:25:14.906Z,1.47
2017-11-15T07:27:43.120Z,2.93
2017-11-15T07:30:10.550Z,2.40
2017-11-15T07:32:37.981Z,2.00
2017-11-15T07:35:05.422Z,2.90
2017-11-15T07:37:32.857Z,2.40
2017-11-15T07:40:00.405Z,2.63
2017-11-15T07:42:27.835Z,2.43
2017-11-15T07:44:55.294Z,2.63
2017-11-15T07:47:22.701Z,1.70
2017-11-15T07:49:50.137Z,2.30
2017-11-15T07:52:17.583Z,1.77
2017-11-15T07:54:45.015Z,3.30
2017-11-15T07:57:13.215Z,1.50
2017-11-15T07:59:40.697Z,2.50
2017-11-15T08:02:08.138Z,3.87
2017-11-15T08:04:35.622Z,5.07
2017-11-15T08:07:03.054Z,3.20
2017-11-15T08:09:30.494Z,2.67
2017-11-15T08:11:57.924Z,1.93
2017-11-15T08:14:26.140Z,1.83
2017-11-15T08:16:53.577Z,2.90
2017-11-15T08:19:21.071Z,1.60
2017-11-15T08:21:48.498Z,1.50
2017-11-15T08:24:15.995Z,2.13
2017-11-15T08:26:43.428Z,2.00
2017-11-15T08:29:10.870Z,1.40
2017-11-15T08:31:38.364Z,2.07
2017-11-15T08:34:05.786Z,1.83
2017-11-15T08:36:33.235Z,2.13
2017-11-15T08:39:00.662Z,1.53
2017-11-15T08:41:28.882Z,2.40
2017-11-15T08:43:56.322Z,2.20
2017-11-15T08:46:24.530Z,3.27
2017-11-15T08:48:51.970Z,2.43
2017-11-15T08:51:19.470Z,3.17
2017-11-15T08:53:46.913Z,3.43
2017-11-15T08:56:14.342Z,2.97
2017-11-15T08:58:41.767Z,3.40
2017-11-15T09:01:09.979Z,4.10
2017-11-15T09:03:37.409Z,3.67
2017-11-15T09:06:05.733Z,2.50
2017-11-15T09:08:33.198Z,1.30
2017-11-15T09:11:00.655Z,2.37
2017-11-15T09:13:28.102Z,1.93
2017-11-15T09:15:55.534Z,2.73
2017-11-15T09:18:22.974Z,1.83
2017-11-15T09:20:50.479Z,2.80
2017-11-15T09:23:17.919Z,2.00
2017-11-15T09:25:45.357Z,2.77
2017-11-15T09:28:12.793Z,5.13
2017-11-15T09:30:41.006Z,2.40
2017-11-15T09:33:08.434Z,3.70
2017-11-15T09:35:35.879Z,3.97
2017-11-15T09:38:04.090Z,4.20
2017-11-15T09:40:31.518Z,2.43
2017-11-15T09:42:59.731Z,3.87
2017-11-15T09:45:27.202Z,3.57
2017-11-15T09:47:54.633Z,4.17
2017-11-15T09:50:22.078Z,3.77
2017-11-15T09:52:49.577Z,3.70
2017-11-15T09:55:17.017Z,2.97
2017-11-15T09:57:44.440Z,2.90
2017-11-15T10:00:12.666Z,3.10
2017-11-15T10:02:40.103Z,2.57
2017-11-15T10:05:07.533Z,3.17
2017-11-15T10:07:36.054Z,4.33
2017-11-15T10:10:03.473Z,3.30
2017-11-15T10:12:31.694Z,3.00
2017-11-15T10:14:59.149Z,3.00
2017-11-15T10:17:26.578Z,1.97
2017-11-15T10:19:54.278Z,4.53
2017-11-15T10:22:21.715Z,4.03
2017-11-15T10:24:49.127Z,2.70
2017-11-15T10:27:16.566Z,3.20
2017-11-15T10:29:44.006Z,4.23
2017-11-15T10:32:11.766Z,2.60
2017-11-15T10:34:39.219Z,4.20
2017-11-15T10:37:06.659Z,3.53
2017-11-15T10:39:34.150Z,2.83
2017-11-15T10:42:01.581Z,4.07
2017-11-15T10:44:29.366Z,4.30
2017-11-15T10:46:56.798Z,3.87
2017-11-15T10:49:24.269Z,4.60
2017-11-15T10:51:51.716Z,3.60
2017-11-15T10:54:19.151Z,3.20
2017-11-15T10:56:46.959Z,2.90
2017-11-15T10:59:14.383Z,3.43
2017-11-15T11:01:41.807Z,3.97
2017-11-15T11:04:10.145Z,3.67
2017-11-15T11:06:37.584Z,3.73
2017-11-15T11:09:05.370Z,2.60
2017-11-15T11:11:32.808Z,2.50
2017-11-15T11:14:00.239Z,2.90
2017-11-15T11:16:27.683Z,3.40
2017-11-15T11:18:55.910Z,4.00
2017-11-15T11:21:23.674Z,2.73
2017-11-15T11:23:51.129Z,3.80
2017-11-15T11:26:18.542Z,3.57
2017-11-15T11:28:46.748Z,2.73
2017-11-15T11:31:14.186Z,4.00
2017-11-15T11:33:41.988Z,4.30
2017-11-15T11:36:09.442Z,4.00
2017-11-15T11:38:36.879Z,4.70
2017-11-15T11:41:04.354Z,5.57
2017-11-15T11:43:31.788Z,5.83
2017-11-15T11:45:59.218Z,4.77
2017-11-15T11:48:27.455Z,4.17
2017-11-15T11:50:54.902Z,5.77
2017-11-15T11:53:22.347Z,4.50
2017-11-15T11:55:49.804Z,4.10
2017-11-15T11:58:17.220Z,4.73
2017-11-15T12:00:45.455Z,4.87
2017-11-15T12:03:12.885Z,5.90
2017-11-15T12:05:40.367Z,4.67
2017-11-15T12:08:07.803Z,4.10
2017-11-15T12:10:35.246Z,5.00
2017-11-15T12:13:02.711Z,5.93
2017-11-15T12:15:30.130Z,5.10
2017-11-15T12:17:58.369Z,5.40
2017-11-15T12:20:25.794Z,4.40
2017-11-15T12:22:53.251Z,5.87
2017-11-15T12:25:21.050Z,5.80
2017-11-15T12:27:48.496Z,5.40
2017-11-15T12:30:15.953Z,5.97
2017-11-15T12:32:43.650Z,5.53
2017-11-15T12:35:11.080Z,5.43
2017-11-15T12:37:38.514Z,5.83
2017-11-15T12:40:06.307Z,5.70
2017-11-15T12:42:33.746Z,6.00
2017-11-15T12:45:01.183Z,5.50
2017-11-15T12:47:28.626Z,5.77
2017-11-15T12:49:56.833Z,6.30
2017-11-15T12:52:24.623Z,5.77
2017-11-15T12:54:52.049Z,5.77
2017-11-15T12:57:19.482Z,4.97
2017-11-15T12:59:48.019Z,4.53
2017-11-15T13:02:15.451Z,4.90
2017-11-15T13:04:42.884Z,6.00
2017-11-15T13:07:11.412Z,5.50
2017-11-15T13:09:38.849Z,6.20
2017-11-15T13:12:06.283Z,5.53
2017-11-15T13:14:33.724Z,6.47
2017-11-15T13:17:01.923Z,5.47
2017-11-15T13:19:29.643Z,5.87
2017-11-15T13:21:57.063Z,5.77
2017-11-15T13:24:24.498Z,5.80
2017-11-15T13:26:52.204Z,8.10
2017-11-15T13:29:19.638Z,5.70
2017-11-15T13:31:47.075Z,6.30
2017-11-15T13:34:14.515Z,5.70
2017-11-15T13:36:42.714Z,8.53
2017-11-15T13:39:10.510Z,5.60
2017-11-15T13:41:37.947Z,6.30
2017-11-15T13:44:05.377Z,5.30
2017-11-15T13:46:32.825Z,6.70
2017-11-15T13:49:01.030Z,5.77
2017-11-15T13:51:28.726Z,6.43
2017-11-15T13:53:56.193Z,7.73
2017-11-15T13:56:23.586Z,7.00
2017-11-15T13:58:51.785Z,7.67
2017-11-15T14:01:19.253Z,6.37
2017-11-15T14:03:46.928Z,6.90
2017-11-15T14:06:14.371Z,6.27
2017-11-15T14:08:41.791Z,6.33
2017-11-15T14:11:09.992Z,5.47
2017-11-15T14:13:37.469Z,6.07
2017-11-15T14:16:05.230Z,6.33
2017-11-15T14:18:32.663Z,6.27
2017-11-15T14:21:00.103Z,5.80
2017-11-15T14:23:28.315Z,7.37
2017-11-15T14:25:55.770Z,6.20
2017-11-15T14:28:23.199Z,6.83
2017-11-15T14:30:50.635Z,6.03
2017-11-15T14:33:19.278Z,6.27
2017-11-15T14:35:46.736Z,7.77
2017-11-15T14:38:14.158Z,7.50
2017-11-15T14:40:41.610Z,7.13
2017-11-15T14:43:09.853Z,8.43
2017-11-15T14:45:37.701Z,7.93
2017-11-15T14:48:05.153Z,8.10
2017-11-15T14:50:32.595Z,7.73
2017-11-15T14:53:00.058Z,8.50
2017-11-15T14:55:27.495Z,8.30
2017-11-15T14:57:55.194Z,6.60
2017-11-15T15:00:22.644Z,7.07
2017-11-15T15:02:50.105Z,6.20
2017-11-15T15:05:17.652Z,7.50
2017-11-15T15:07:45.124Z,7.40
2017-11-15T15:10:12.674Z,6.97
2017-11-15T15:12:40.104Z,8.83
2017-11-15T15:15:07.907Z,7.10
2017-11-15T15:17:35.448Z,10.40
2017-11-15T15:20:02.921Z,8.37
2017-11-15T15:22:30.371Z,9.83
2017-11-15T15:24:57.839Z,9.60
2017-11-15T15:27:25.299Z,9.33
2017-11-15T15:29:52.744Z,8.07
2017-11-15T15:32:20.510Z,11.20
2017-11-15T15:34:47.943Z,11.20
2017-11-15T15:37:15.365Z,7.40
2017-11-15T15:39:42.810Z,8.77
2017-11-15T15:42:11.010Z,9.77
2017-11-15T15:44:39.225Z,9.80
2017-11-15T15:47:06.681Z,8.97
2017-11-15T15:49:34.451Z,9.60
2017-11-15T15:52:01.879Z,10.47
2017-11-15T15:54:29.360Z,12.57
2017-11-15T15:56:56.809Z,10.37
2017-11-15T15:59:24.262Z,13.67
2017-11-15T16:01:51.703Z,11.40
2017-11-15T16:04:19.907Z,10.77
2017-11-15T16:06:47.612Z,11.87
2017-11-15T16:09:15.806Z,9.57
2017-11-15T16:11:44.018Z,14.43
2017-11-15T16:14:11.488Z,9.50
2017-11-15T16:16:38.941Z,10.40
2017-11-15T16:19:06.508Z,10.90
2017-11-15T16:21:33.954Z,11.20
2017-11-15T16:24:01.674Z,12.63
2017-11-15T16:26:29.874Z,10.17
2017-11-15T16:28:57.308Z,10.37
2017-11-15T16:31:24.757Z,12.60
2017-11-15T16:33:52.960Z,11.03
2017-11-15T16:36:20.411Z,11.00
2017-11-15T16:38:47.910Z,12.10
2017-11-15T16:41:15.618Z,14.13
2017-11-15T16:43:43.853Z,12.07
2017-11-15T16:46:11.292Z,13.20
2017-11-15T16:48:38.767Z,12.63
2017-11-15T16:51:06.262Z,10.93
2017-11-15T16:53:33.779Z,10.20
2017-11-15T16:56:01.426Z,9.90
2017-11-15T16:58:29.924Z,11.73
2017-11-15T17:00:57.383Z,11.47
2017-11-15T17:03:24.819Z,12.07
2017-11-15T17:05:52.274Z,11.80
2017-11-15T17:08:19.719Z,12.90
2017-11-15T17:10:47.170Z,10.80
2017-11-15T17:13:14.622Z,10.20
2017-11-15T17:15:42.440Z,11.30
2017-11-15T17:18:09.884Z,10.10
2017-11-15T17:20:37.315Z,9.57
2017-11-15T17:23:04.770Z,12.50
2017-11-15T17:25:32.262Z,10.30
2017-11-15T17:27:59.709Z,12.43
2017-11-15T17:30:27.169Z,10.97
2017-11-15T17:32:54.937Z,10.67
2017-11-15T17:35:22.379Z,13.57
2017-11-15T17:37:49.814Z,9.97
2017-11-15T17:40:17.313Z,8.90
2017-11-15T17:42:44.861Z,9.17
2017-11-15T17:45:12.630Z,9.63
2017-11-15T17:47:40.093Z,10.47
2017-11-15T17:50:07.531Z,14.03
2017-11-15T17:52:34.974Z,14.50
2017-11-15T17:55:03.249Z,13.33
2017-11-15T17:57:30.837Z,11.50
2017-11-15T17:59:58.257Z,13.80
2017-11-15T18:02:26.790Z,13.03
2017-11-15T18:04:54.226Z,11.80
2017-11-15T18:07:21.670Z,13.03
2017-11-15T18:09:49.113Z,15.90
2017-11-15T18:12:16.541Z,10.30
2017-11-15T18:14:44.880Z,12.03
2017-11-15T18:17:12.315Z,11.90
2017-11-15T18:19:40.109Z,9.27
2017-11-15T18:22:07.571Z,10.33
2017-11-15T18:24:35.019Z,10.37
2017-11-15T18:27:02.465Z,10.93
2017-11-15T18:29:29.901Z,9.83
2017-11-15T18:31:58.122Z,10.03
2017-11-15T18:34:25.567Z,12.73
2017-11-15T18:36:53.277Z,12.17
2017-11-15T18:39:21.514Z,10.90
2017-11-15T18:41:48.974Z,11.20
2017-11-15T18:44:16.425Z,14.97
2017-11-15T18:46:43.858Z,9.60
2017-11-15T18:49:11.310Z,13.00
2017-11-15T18:51:38.749Z,11.70
2017-11-15T18:54:07.288Z,13.90
2017-11-15T18:56:34.856Z,12.33
2017-11-15T18:59:02.294Z,15.37
2017-11-15T19:01:29.742Z,11.67
2017-11-15T19:03:57.250Z,13.30
2017-11-15T19:06:24.865Z,14.53
2017-11-15T19:08:52.330Z,13.90
2017-11-15T19:11:20.098Z,14.70
2017-11-15T19:13:47.553Z,15.10
2017-11-15T19:16:15.010Z,15.37
2017-11-15T19:18:42.450Z,12.43
2017-11-15T19:21:09.926Z,13.70
2017-11-15T19:23:37.356Z,13.63
2017-11-15T19:26:04.800Z,12.63
2017-11-15T19:28:33.330Z,11.80
2017-11-15T19:31:00.768Z,13.97
2017-11-15T19:33:28.195Z,11.47
2017-11-15T19:35:56.408Z,12.10
2017-11-15T19:38:23.863Z,9.70
2017-11-15T19:40:51.420Z,11.20
2017-11-15T19:43:18.845Z,8.87
2017-11-15T19:45:47.375Z,11.67
2017-11-15T19:48:14.833Z,11.53
2017-11-15T19:50:42.280Z,12.53
2017-11-15T19:53:09.730Z,10.70
2017-11-15T19:55:37.205Z,10.37
2017-11-15T19:58:04.762Z,10.60
2017-11-15T20:00:32.219Z,10.63
2017-11-15T20:02:59.988Z,10.77
2017-11-15T20:05:27.426Z,10.37
2017-11-15T20:07:54.862Z,13.23
2017-11-15T20:10:22.359Z,8.30
2017-11-15T20:12:49.787Z,10.40
2017-11-15T20:15:17.250Z,9.57
2017-11-15T20:17:44.693Z,11.03
2017-11-15T20:20:12.399Z,11.90
2017-11-15T20:22:39.842Z,9.20
2017-11-15T20:25:07.266Z,11.33
2017-11-15T20:27:34.713Z,10.83
2017-11-15T20:30:02.150Z,10.13
2017-11-15T20:32:30.378Z,10.40
2017-11-15T20:34:57.809Z,9.50
2017-11-15T20:37:25.519Z,11.43
2017-11-15T20:39:52.975Z,9.53
2017-11-15T20:42:20.431Z,11.23
2017-11-15T20:44:47.991Z,11.03
2017-11-15T20:47:15.438Z,12.27
2017-11-15T20:49:42.889Z,14.80
2017-11-15T20:52:10.355Z,11.40
2017-11-15T20:54:38.066Z,12.10
2017-11-15T20:57:06.297Z,11.83
2017-11-15T20:59:33.754Z,10.57
2017-11-15T21:02:01.202Z,11.40
2017-11-15T21:04:28.641Z,11.00
2017-11-15T21:06:56.089Z,9.80
2017-11-15T21:09:23.533Z,10.90
2017-11-15T21:11:52.075Z,11.53
2017-11-15T21:14:19.520Z,11.27
2017-11-15T21:16:46.990Z,10.23
2017-11-15T21:19:14.538Z,10.27
2017-11-15T21:21:41.977Z,10.90
2017-11-15T21:24:09.484Z,13.77
2017-11-15T21:26:36.919Z,14.03
2017-11-15T21:29:04.683Z,11.23
2017-11-15T21:31:32.119Z,11.80
2017-11-15T21:33:59.549Z,11.87
2017-11-15T21:36:27.016Z,8.30
2017-11-15T21:38:54.454Z,11.20
2017-11-15T21:41:22.796Z,9.77
2017-11-15T21:43:50.257Z,10.97
2017-11-15T21:46:18.014Z,8.63
2017-11-15T21:48:45.465Z,10.97
2017-11-15T21:51:13.008Z,10.97
2017-11-15T21:53:40.495Z,9.20
2017-11-15T21:56:07.925Z,6.60
2017-11-15T21:58:35.381Z,9.93
2017-11-15T22:01:02.817Z,10.63
2017-11-15T22:03:30.748Z,8.20
2017-11-15T22:05:58.213Z,7.90
2017-11-15T22:08:25.646Z,9.07
2017-11-15T22:10:53.922Z,10.33
2017-11-15T22:13:21.358Z,9.40
2017-11-15T22:15:48.830Z,8.67
2017-11-15T22:18:16.258Z,7.63
2017-11-15T22:20:44.046Z,8.73
2017-11-15T22:23:11.495Z,9.63
2017-11-15T22:25:38.971Z,10.57
2017-11-15T22:28:06.416Z,8.83
2017-11-15T22:30:33.846Z,8.43
2017-11-15T22:33:01.321Z,12.33
2017-11-15T22:35:28.734Z,9.47
2017-11-15T22:37:57.407Z,7.80
2017-11-15T22:40:24.821Z,8.60
2017-11-15T22:42:52.269Z,7.07
2017-11-15T22:45:19.706Z,8.43
2017-11-15T22:47:47.141Z,10.37
2017-11-15T22:50:14.589Z,9.70
2017-11-15T22:52:42.127Z,8.40
2017-11-15T22:55:09.894Z,8.00
2017-11-15T22:57:37.333Z,8.20
2017-11-15T23:00:04.770Z,8.47
2017-11-15T23:02:32.229Z,8.20
2017-11-15T23:04:59.721Z,8.87
2017-11-15T23:07:27.185Z,11.13
2017-11-15T23:09:54.630Z,8.40
2017-11-15T23:12:22.401Z,7.23
2017-11-15T23:14:49.839Z,9.37
2017-11-15T23:17:17.284Z,9.33
2017-11-15T23:19:44.730Z,9.60
2017-11-15T23:22:12.163Z,7.70
2017-11-15T23:24:39.694Z,10.77
2017-11-15T23:27:07.229Z,8.60
2017-11-15T23:29:35.015Z,7.80
2017-11-15T23:32:02.436Z,4.17
2017-11-15T23:34:29.859Z,4.60
2017-11-15T23:36:58.074Z,5.73
2017-11-15T23:39:25.514Z,5.40
2017-11-15T23:41:53.829Z,6.90
2017-11-15T23:44:21.287Z,5.00
2017-11-15T23:46:49.033Z,5.40
2017-11-15T23:49:16.513Z,6.30
2017-11-15T23:51:43.943Z,4.80
2017-11-15T23:54:11.426Z,3.97
2017-11-15T23:56:38.858Z,4.10
2017-11-15T23:59:06.309Z,5.23
